sensor_id;sensor_type;location;lat;lon;timestamp;pressure;altitude;pressure_sealevel;temperature
7830;BMP180;3960;51.86894000;5.39848000;2022-07-21T00:00:24;101803.69;;;20.24
7830;BMP180;3960;51.86894000;5.39848000;2022-07-21T00:02:50;101808.84;;;20.22
7830;BMP180;3960;51.86894000;5.39848000;2022-07-21T00:05:16;101796.75;;;20.20
7830;BMP180;3960;51.86894000;5.39848000;2022-07-21T00:07:42;101802.78;;;20.27
7830;BMP180;3960;51.86894000;5.39848000;2022-07-21T00:10:09;101807.19;;;20.25
7830;BMP180;3960;51.86894000;5.39848000;2022-07-21T00:12:34;101803.47;;;20.19
7830;BMP180;3960;51.86894000;5.39848000;2022-07-21T00:15:00;101799.72;;;20.25
7830;BMP180;3960;51.86894000;5.39848000;2022-07-21T00:17:26;101805.66;;;20.24
7830;BMP180;3960;51.86894000;5.39848000;2022-07-21T00:19:51;101798.63;;;20.23
7830;BMP180;3960;51.86894000;5.39848000;2022-07-21T00:22:16;101800.28;;;20.20
7830;BMP180;3960;51.86894000;5.39848000;2022-07-21T00:24:42;101799.97;;;20.18
7830;BMP180;3960;51.86894000;5.39848000;2022-07-21T00:27:07;101798.22;;;20.12
7830;BMP180;3960;51.86894000;5.39848000;2022-07-21T00:29:32;101802.25;;;20.20
7830;BMP180;3960;51.86894000;5.39848000;2022-07-21T00:31:57;101800.28;;;20.20
7830;BMP180;3960;51.86894000;5.39848000;2022-07-21T00:34:25;101783.59;;;20.15
7830;BMP180;3960;51.86894000;5.39848000;2022-07-21T00:36:50;101790.97;;;20.18
7830;BMP180;3960;51.86894000;5.39848000;2022-07-21T00:39:15;101784.03;;;20.13
7830;BMP180;3960;51.86894000;5.39848000;2022-07-21T00:41:41;101782.03;;;20.14
7830;BMP180;3960;51.86894000;5.39848000;2022-07-21T00:44:18;101795.66;;;20.17
7830;BMP180;3960;51.86894000;5.39848000;2022-07-21T00:46:44;101788.19;;;20.18
7830;BMP180;3960;51.86894000;5.39848000;2022-07-21T00:49:09;101787.09;;;20.15
7830;BMP180;3960;51.86894000;5.39848000;2022-07-21T00:51:35;101787.53;;;20.14
7830;BMP180;3960;51.86894000;5.39848000;2022-07-21T00:54:00;101787.53;;;20.14
7830;BMP180;3960;51.86894000;5.39848000;2022-07-21T00:56:26;101777.44;;;20.11
7830;BMP180;3960;51.86894000;5.39848000;2022-07-21T00:58:51;101780.50;;;20.13
7830;BMP180;3960;51.86894000;5.39848000;2022-07-21T01:01:16;101779.88;;;20.09
7830;BMP180;3960;51.86894000;5.39848000;2022-07-21T01:03:41;101776.66;;;20.10
7830;BMP180;3960;51.86894000;5.39848000;2022-07-21T01:06:07;101776.34;;;20.08
7830;BMP180;3960;51.86894000;5.39848000;2022-07-21T01:08:32;101767.78;;;20.06
7830;BMP180;3960;51.86894000;5.39848000;2022-07-21T01:10:58;101779.22;;;20.05
7830;BMP180;3960;51.86894000;5.39848000;2022-07-21T01:13:23;101773.84;;;20.01
7830;BMP180;3960;51.86894000;5.39848000;2022-07-21T01:15:49;101755.50;;;19.86
7830;BMP180;3960;51.86894000;5.39848000;2022-07-21T01:18:14;101758.47;;;19.91
7830;BMP180;3960;51.86894000;5.39848000;2022-07-21T01:20:41;101759.13;;;19.95
7830;BMP180;3960;51.86894000;5.39848000;2022-07-21T01:23:09;101743.75;;;19.85
7830;BMP180;3960;51.86894000;5.39848000;2022-07-21T01:25:35;101755.38;;;19.89
7830;BMP180;3960;51.86894000;5.39848000;2022-07-21T01:28:00;101754.75;;;19.85
7830;BMP180;3960;51.86894000;5.39848000;2022-07-21T01:30:26;101753.66;;;19.83
7830;BMP180;3960;51.86894000;5.39848000;2022-07-21T01:32:51;101764.66;;;19.83
7830;BMP180;3960;51.86894000;5.39848000;2022-07-21T01:35:17;101751.78;;;19.80
7830;BMP180;3960;51.86894000;5.39848000;2022-07-21T01:37:46;101766.31;;;19.80
7830;BMP180;3960;51.86894000;5.39848000;2022-07-21T01:40:13;101769.19;;;19.77
7830;BMP180;3960;51.86894000;5.39848000;2022-07-21T01:42:58;101773.25;;;19.73
7830;BMP180;3960;51.86894000;5.39848000;2022-07-21T01:45:23;101763.91;;;19.70
7830;BMP180;3960;51.86894000;5.39848000;2022-07-21T01:47:49;101767.13;;;19.69
7830;BMP180;3960;51.86894000;5.39848000;2022-07-21T01:50:14;101767.25;;;19.65
7830;BMP180;3960;51.86894000;5.39848000;2022-07-21T01:52:40;101775.16;;;19.63
7830;BMP180;3960;51.86894000;5.39848000;2022-07-21T01:55:05;101772.84;;;19.62
7830;BMP180;3960;51.86894000;5.39848000;2022-07-21T01:57:31;101776.03;;;19.60
7830;BMP180;3960;51.86894000;5.39848000;2022-07-21T01:59:56;101766.69;;;19.58
7830;BMP180;3960;51.86894000;5.39848000;2022-07-21T02:02:21;101764.50;;;19.53
7830;BMP180;3960;51.86894000;5.39848000;2022-07-21T02:04:48;101759.69;;;19.44
7830;BMP180;3960;51.86894000;5.39848000;2022-07-21T02:07:14;101766.63;;;19.49
7830;BMP180;3960;51.86894000;5.39848000;2022-07-21T02:09:40;101757.41;;;19.43
7830;BMP180;3960;51.86894000;5.39848000;2022-07-21T02:12:05;101764.41;;;19.44
7830;BMP180;3960;51.86894000;5.39848000;2022-07-21T02:14:31;101757.41;;;19.43
7830;BMP180;3960;51.86894000;5.39848000;2022-07-21T02:16:56;101755.06;;;19.41
7830;BMP180;3960;51.86894000;5.39848000;2022-07-21T02:19:21;101752.78;;;19.40
7830;BMP180;3960;51.86894000;5.39848000;2022-07-21T02:21:47;101759.47;;;19.39
7830;BMP180;3960;51.86894000;5.39848000;2022-07-21T02:24:12;101759.13;;;19.37
7830;BMP180;3960;51.86894000;5.39848000;2022-07-21T02:26:37;101754.88;;;19.36
7830;BMP180;3960;51.86894000;5.39848000;2022-07-21T02:29:03;101750.91;;;19.37
7830;BMP180;3960;51.86894000;5.39848000;2022-07-21T02:31:28;101734.78;;;19.26
7830;BMP180;3960;51.86894000;5.39848000;2022-07-21T02:33:53;101746.09;;;19.28
7830;BMP180;3960;51.86894000;5.39848000;2022-07-21T02:36:19;101760.16;;;19.30
7830;BMP180;3960;51.86894000;5.39848000;2022-07-21T02:38:44;101751.69;;;19.25
7830;BMP180;3960;51.86894000;5.39848000;2022-07-21T02:41:09;101744.88;;;19.29
7830;BMP180;3960;51.86894000;5.39848000;2022-07-21T02:43:34;101743.03;;;19.26
7830;BMP180;3960;51.86894000;5.39848000;2022-07-21T02:46:00;101737.66;;;19.23
7830;BMP180;3960;51.86894000;5.39848000;2022-07-21T02:48:25;101735.78;;;19.20
7830;BMP180;3960;51.86894000;5.39848000;2022-07-21T02:50:50;101729.53;;;19.19
7830;BMP180;3960;51.86894000;5.39848000;2022-07-21T02:53:17;101723.25;;;19.19
7830;BMP180;3960;51.86894000;5.39848000;2022-07-21T02:55:45;101723.34;;;19.15
7830;BMP180;3960;51.86894000;5.39848000;2022-07-21T02:58:26;101715.78;;;19.19
7830;BMP180;3960;51.86894000;5.39848000;2022-07-21T03:00:56;101703.38;;;19.15
7830;BMP180;3960;51.86894000;5.39848000;2022-07-21T03:03:23;101719.41;;;19.16
7830;BMP180;3960;51.86894000;5.39848000;2022-07-21T03:05:49;101727.66;;;19.16
7830;BMP180;3960;51.86894000;5.39848000;2022-07-21T03:08:14;101738.97;;;19.18
7830;BMP180;3960;51.86894000;5.39848000;2022-07-21T03:10:41;101738.97;;;19.18
7830;BMP180;3960;51.86894000;5.39848000;2022-07-21T03:13:07;101731.59;;;19.15
7830;BMP180;3960;51.86894000;5.39848000;2022-07-21T03:15:33;101742.91;;;19.17
7830;BMP180;3960;51.86894000;5.39848000;2022-07-21T03:17:59;101723.16;;;19.10
7830;BMP180;3960;51.86894000;5.39848000;2022-07-21T03:20:26;101739.28;;;19.20
7830;BMP180;3960;51.86894000;5.39848000;2022-07-21T03:22:51;101746.41;;;19.18
7830;BMP180;3960;51.86894000;5.39848000;2022-07-21T03:25:17;101743.25;;;19.19
7830;BMP180;3960;51.86894000;5.39848000;2022-07-21T03:27:43;101731.94;;;19.17
7830;BMP180;3960;51.86894000;5.39848000;2022-07-21T03:30:09;101739.28;;;19.20
7830;BMP180;3960;51.86894000;5.39848000;2022-07-21T03:32:35;101740.81;;;19.21
7830;BMP180;3960;51.86894000;5.39848000;2022-07-21T03:35:01;101746.66;;;19.23
7830;BMP180;3960;51.86894000;5.39848000;2022-07-21T03:37:26;101738.41;;;19.23
7830;BMP180;3960;51.86894000;5.39848000;2022-07-21T03:39:52;101738.53;;;19.20
7830;BMP180;3960;51.86894000;5.39848000;2022-07-21T03:42:17;101748.19;;;19.24
7830;BMP180;3960;51.86894000;5.39848000;2022-07-21T03:44:43;101743.44;;;19.25
7830;BMP180;3960;51.86894000;5.39848000;2022-07-21T03:47:08;101752.38;;;19.29
7830;BMP180;3960;51.86894000;5.39848000;2022-07-21T03:49:33;101753.88;;;19.30
7830;BMP180;3960;51.86894000;5.39848000;2022-07-21T03:51:58;101753.00;;;19.33
7830;BMP180;3960;51.86894000;5.39848000;2022-07-21T03:54:24;101754.22;;;19.32
7830;BMP180;3960;51.86894000;5.39848000;2022-07-21T03:56:49;101757.75;;;19.32
7830;BMP180;3960;51.86894000;5.39848000;2022-07-21T03:59:14;101751.78;;;19.34
7830;BMP180;3960;51.86894000;5.39848000;2022-07-21T04:01:39;101746.31;;;19.34
7830;BMP180;3960;51.86894000;5.39848000;2022-07-21T04:04:05;101737.72;;;19.32
7830;BMP180;3960;51.86894000;5.39848000;2022-07-21T04:06:30;101747.84;;;19.35
7830;BMP180;3960;51.86894000;5.39848000;2022-07-21T04:08:55;101756.72;;;19.39
7830;BMP180;3960;51.86894000;5.39848000;2022-07-21T04:11:21;101747.28;;;19.40
7830;BMP180;3960;51.86894000;5.39848000;2022-07-21T04:13:46;101751.22;;;19.39
7830;BMP180;3960;51.86894000;5.39848000;2022-07-21T04:16:11;101740.25;;;19.39
7830;BMP180;3960;51.86894000;5.39848000;2022-07-21T04:18:36;101739.16;;;19.36
7830;BMP180;3960;51.86894000;5.39848000;2022-07-21T04:21:02;101746.31;;;19.34
7830;BMP180;3960;51.86894000;5.39848000;2022-07-21T04:23:27;101747.06;;;19.34
7830;BMP180;3960;51.86894000;5.39848000;2022-07-21T04:25:53;101749.81;;;19.34
7830;BMP180;3960;51.86894000;5.39848000;2022-07-21T04:28:18;101741.56;;;19.34
7830;BMP180;3960;51.86894000;5.39848000;2022-07-21T04:30:43;101747.06;;;19.34
7830;BMP180;3960;51.86894000;5.39848000;2022-07-21T04:33:09;101749.06;;;19.34
7830;BMP180;3960;51.86894000;5.39848000;2022-07-21T04:35:34;101757.19;;;19.37
7830;BMP180;3960;51.86894000;5.39848000;2022-07-21T04:38:00;101747.72;;;19.38
7830;BMP180;3960;51.86894000;5.39848000;2022-07-21T04:40:26;101758.72;;;19.38
7830;BMP180;3960;51.86894000;5.39848000;2022-07-21T04:42:51;101752.78;;;19.40
7830;BMP180;3960;51.86894000;5.39848000;2022-07-21T04:45:16;101758.59;;;19.42
7830;BMP180;3960;51.86894000;5.39848000;2022-07-21T04:47:47;101755.19;;;19.38
7830;BMP180;3960;51.86894000;5.39848000;2022-07-21T04:50:14;101757.50;;;19.39
7830;BMP180;3960;51.86894000;5.39848000;2022-07-21T04:52:39;101761.88;;;19.37
7830;BMP180;3960;51.86894000;5.39848000;2022-07-21T04:55:05;101767.25;;;19.40
7830;BMP180;3960;51.86894000;5.39848000;2022-07-21T04:57:30;101757.50;;;19.39
7830;BMP180;3960;51.86894000;5.39848000;2022-07-21T04:59:55;101759.47;;;19.39
7830;BMP180;3960;51.86894000;5.39848000;2022-07-21T05:02:21;101765.19;;;19.44
7830;BMP180;3960;51.86894000;5.39848000;2022-07-21T05:04:46;101760.44;;;19.45
7830;BMP180;3960;51.86894000;5.39848000;2022-07-21T05:07:11;101754.09;;;19.48
7830;BMP180;3960;51.86894000;5.39848000;2022-07-21T05:09:36;101759.59;;;19.48
7830;BMP180;3960;51.86894000;5.39848000;2022-07-21T05:12:02;101749.34;;;19.48
7830;BMP180;3960;51.86894000;5.39848000;2022-07-21T05:14:27;101749.00;;;19.46
7830;BMP180;3960;51.86894000;5.39848000;2022-07-21T05:16:53;101751.66;;;19.50
7830;BMP180;3960;51.86894000;5.39848000;2022-07-21T05:19:18;101746.72;;;19.45
7830;BMP180;3960;51.86894000;5.39848000;2022-07-21T05:21:43;101753.97;;;19.51
7830;BMP180;3960;51.86894000;5.39848000;2022-07-21T05:24:10;101750.44;;;19.51
7830;BMP180;3960;51.86894000;5.39848000;2022-07-21T05:26:35;101744.81;;;19.54
7830;BMP180;3960;51.86894000;5.39848000;2022-07-21T05:29:01;101749.13;;;19.55
7830;BMP180;3960;51.86894000;5.39848000;2022-07-21T05:31:26;101748.34;;;19.55
7830;BMP180;3960;51.86894000;5.39848000;2022-07-21T05:33:51;101756.16;;;19.56
7830;BMP180;3960;51.86894000;5.39848000;2022-07-21T05:36:16;101747.56;;;19.54
7830;BMP180;3960;51.86894000;5.39848000;2022-07-21T05:38:43;101745.91;;;19.57
7830;BMP180;3960;51.86894000;5.39848000;2022-07-21T05:41:08;101729.13;;;19.55
7830;BMP180;3960;51.86894000;5.39848000;2022-07-21T05:43:34;101737.13;;;19.62
7830;BMP180;3960;51.86894000;5.39848000;2022-07-21T05:45:59;101735.91;;;19.63
7830;BMP180;3960;51.86894000;5.39848000;2022-07-21T05:48:24;101741.25;;;19.66
7830;BMP180;3960;51.86894000;5.39848000;2022-07-21T05:50:50;101732.59;;;19.68
7830;BMP180;3960;51.86894000;5.39848000;2022-07-21T05:53:15;101735.41;;;19.77
7830;BMP180;3960;51.86894000;5.39848000;2022-07-21T05:55:41;101733.75;;;19.79
7830;BMP180;3960;51.86894000;5.39848000;2022-07-21T05:58:06;101735.94;;;19.84
7830;BMP180;3960;51.86894000;5.39848000;2022-07-21T06:00:31;101731.41;;;19.90
7830;BMP180;3960;51.86894000;5.39848000;2022-07-21T06:02:57;101722.38;;;19.89
7830;BMP180;3960;51.86894000;5.39848000;2022-07-21T06:05:22;101737.53;;;20.06
7830;BMP180;3960;51.86894000;5.39848000;2022-07-21T06:07:47;101733.03;;;20.21
7830;BMP180;3960;51.86894000;5.39848000;2022-07-21T06:10:13;101731.13;;;20.52
7830;BMP180;3960;51.86894000;5.39848000;2022-07-21T06:12:38;101736.19;;;20.84
7830;BMP180;3960;51.86894000;5.39848000;2022-07-21T06:15:04;101731.28;;;21.27
7830;BMP180;3960;51.86894000;5.39848000;2022-07-21T06:17:30;101742.88;;;21.70
7830;BMP180;3960;51.86894000;5.39848000;2022-07-21T06:19:57;101722.94;;;22.11
7830;BMP180;3960;51.86894000;5.39848000;2022-07-21T06:22:24;101737.28;;;22.51
7830;BMP180;3960;51.86894000;5.39848000;2022-07-21T06:24:49;101726.63;;;22.85
7830;BMP180;3960;51.86894000;5.39848000;2022-07-21T06:27:14;101731.09;;;23.15
7830;BMP180;3960;51.86894000;5.39848000;2022-07-21T06:29:39;101729.03;;;23.24
7830;BMP180;3960;51.86894000;5.39848000;2022-07-21T06:32:05;101727.63;;;23.52
7830;BMP180;3960;51.86894000;5.39848000;2022-07-21T06:34:30;101731.19;;;23.67
7830;BMP180;3960;51.86894000;5.39848000;2022-07-21T06:36:55;101722.81;;;23.61
7830;BMP180;3960;51.86894000;5.39848000;2022-07-21T06:39:21;101733.56;;;23.59
7830;BMP180;3960;51.86894000;5.39848000;2022-07-21T06:41:46;101725.09;;;23.63
7830;BMP180;3960;51.86894000;5.39848000;2022-07-21T06:44:11;101726.81;;;23.98
7830;BMP180;3960;51.86894000;5.39848000;2022-07-21T06:46:37;101717.03;;;24.12
7830;BMP180;3960;51.86894000;5.39848000;2022-07-21T06:49:02;101730.69;;;24.58
7830;BMP180;3960;51.86894000;5.39848000;2022-07-21T06:51:28;101729.25;;;24.34
7830;BMP180;3960;51.86894000;5.39848000;2022-07-21T06:53:53;101682.34;;;23.73
7830;BMP180;3960;51.86894000;5.39848000;2022-07-21T06:56:19;101717.19;;;23.70
7830;BMP180;3960;51.86894000;5.39848000;2022-07-21T06:58:45;101719.63;;;23.54
7830;BMP180;3960;51.86894000;5.39848000;2022-07-21T07:01:10;101719.28;;;23.38
7830;BMP180;3960;51.86894000;5.39848000;2022-07-21T07:03:37;101735.63;;;23.27
7830;BMP180;3960;51.86894000;5.39848000;2022-07-21T07:06:03;101728.66;;;23.08
7830;BMP180;3960;51.86894000;5.39848000;2022-07-21T07:08:29;101719.38;;;22.87
7830;BMP180;3960;51.86894000;5.39848000;2022-07-21T07:10:54;101722.94;;;22.79
7830;BMP180;3960;51.86894000;5.39848000;2022-07-21T07:13:20;101728.56;;;22.52
7830;BMP180;3960;51.86894000;5.39848000;2022-07-21T07:15:45;101734.41;;;22.45
7830;BMP180;3960;51.86894000;5.39848000;2022-07-21T07:18:11;101733.19;;;22.37
7830;BMP180;3960;51.86894000;5.39848000;2022-07-21T07:20:36;101739.50;;;22.29
7830;BMP180;3960;51.86894000;5.39848000;2022-07-21T07:23:02;101731.97;;;22.20
7830;BMP180;3960;51.86894000;5.39848000;2022-07-21T07:25:27;101731.38;;;22.16
7830;BMP180;3960;51.86894000;5.39848000;2022-07-21T07:27:52;101735.06;;;22.13
7830;BMP180;3960;51.86894000;5.39848000;2022-07-21T07:30:19;101731.22;;;22.11
7830;BMP180;3960;51.86894000;5.39848000;2022-07-21T07:32:45;101728.91;;;22.01
7830;BMP180;3960;51.86894000;5.39848000;2022-07-21T07:35:12;101734.75;;;21.94
7830;BMP180;3960;51.86894000;5.39848000;2022-07-21T07:37:39;101741.94;;;21.91
7830;BMP180;3960;51.86894000;5.39848000;2022-07-21T07:40:07;101748.06;;;21.86
7830;BMP180;3960;51.86894000;5.39848000;2022-07-21T07:42:33;101737.94;;;21.65
7830;BMP180;3960;51.86894000;5.39848000;2022-07-21T07:44:59;101750.06;;;21.59
7830;BMP180;3960;51.86894000;5.39848000;2022-07-21T07:47:24;101749.38;;;21.46
7830;BMP180;3960;51.86894000;5.39848000;2022-07-21T07:49:49;101756.56;;;21.34
7830;BMP180;3960;51.86894000;5.39848000;2022-07-21T07:52:16;101755.63;;;21.28
7830;BMP180;3960;51.86894000;5.39848000;2022-07-21T07:54:41;101753.91;;;21.13
7830;BMP180;3960;51.86894000;5.39848000;2022-07-21T07:57:06;101764.44;;;21.06
7830;BMP180;3960;51.86894000;5.39848000;2022-07-21T07:59:32;101770.97;;;20.99
7830;BMP180;3960;51.86894000;5.39848000;2022-07-21T08:01:57;101763.31;;;20.94
7830;BMP180;3960;51.86894000;5.39848000;2022-07-21T08:04:22;101763.25;;;20.85
7830;BMP180;3960;51.86894000;5.39848000;2022-07-21T08:06:47;101773.88;;;20.74
7830;BMP180;3960;51.86894000;5.39848000;2022-07-21T08:09:13;101755.78;;;20.64
7830;BMP180;3960;51.86894000;5.39848000;2022-07-21T08:11:39;101770.78;;;20.63
7830;BMP180;3960;51.86894000;5.39848000;2022-07-21T08:14:04;101758.75;;;20.49
7830;BMP180;3960;51.86894000;5.39848000;2022-07-21T08:16:30;101767.78;;;20.49
7830;BMP180;3960;51.86894000;5.39848000;2022-07-21T08:18:56;101773.22;;;20.40
7830;BMP180;3960;51.86894000;5.39848000;2022-07-21T08:21:21;101773.03;;;20.35
7830;BMP180;3960;51.86894000;5.39848000;2022-07-21T08:23:46;101771.16;;;20.32
7830;BMP180;3960;51.86894000;5.39848000;2022-07-21T08:26:11;101768.25;;;20.26
7830;BMP180;3960;51.86894000;5.39848000;2022-07-21T08:28:37;101763.16;;;20.25
7830;BMP180;3960;51.86894000;5.39848000;2022-07-21T08:31:02;101756.41;;;20.17
7830;BMP180;3960;51.86894000;5.39848000;2022-07-21T08:33:27;101751.91;;;20.10
7830;BMP180;3960;51.86894000;5.39848000;2022-07-21T08:35:53;101753.78;;;20.13
7830;BMP180;3960;51.86894000;5.39848000;2022-07-21T08:38:19;101750.19;;;20.04
7830;BMP180;3960;51.86894000;5.39848000;2022-07-21T08:40:45;101762.03;;;20.13
7830;BMP180;3960;51.86894000;5.39848000;2022-07-21T08:43:11;101768.16;;;20.17
7830;BMP180;3960;51.86894000;5.39848000;2022-07-21T08:45:39;101761.91;;;20.17
7830;BMP180;3960;51.86894000;5.39848000;2022-07-21T08:48:05;101758.72;;;20.18
7830;BMP180;3960;51.86894000;5.39848000;2022-07-21T08:50:34;101757.03;;;20.21
7830;BMP180;3960;51.86894000;5.39848000;2022-07-21T08:53:00;101756.16;;;20.24
7830;BMP180;3960;51.86894000;5.39848000;2022-07-21T08:55:28;101766.91;;;20.31
7830;BMP180;3960;51.86894000;5.39848000;2022-07-21T08:57:54;101765.66;;;20.32
7830;BMP180;3960;51.86894000;5.39848000;2022-07-21T09:00:20;101758.78;;;20.27
7830;BMP180;3960;51.86894000;5.39848000;2022-07-21T09:02:45;101771.94;;;20.32
7830;BMP180;3960;51.86894000;5.39848000;2022-07-21T09:05:10;101772.44;;;20.40
7830;BMP180;3960;51.86894000;5.39848000;2022-07-21T09:07:52;101764.41;;;20.45
7830;BMP180;3960;51.86894000;5.39848000;2022-07-21T09:10:25;101762.84;;;20.44
7830;BMP180;3960;51.86894000;5.39848000;2022-07-21T09:12:52;101751.38;;;20.46
7830;BMP180;3960;51.86894000;5.39848000;2022-07-21T09:15:20;101739.91;;;20.38
7830;BMP180;3960;51.86894000;5.39848000;2022-07-21T09:18:03;101756.00;;;20.49
7830;BMP180;3960;51.86894000;5.39848000;2022-07-21T09:20:29;101766.88;;;20.52
7830;BMP180;3960;51.86894000;5.39848000;2022-07-21T09:23:10;101764.44;;;20.54
7830;BMP180;3960;51.86894000;5.39848000;2022-07-21T09:25:45;101777.09;;;20.52
7830;BMP180;3960;51.86894000;5.39848000;2022-07-21T09:28:25;101773.53;;;20.42
7830;BMP180;3960;51.86894000;5.39848000;2022-07-21T09:30:59;101778.91;;;20.46
7830;BMP180;3960;51.86894000;5.39848000;2022-07-21T09:33:43;101780.56;;;20.43
7830;BMP180;3960;51.86894000;5.39848000;2022-07-21T09:36:09;101778.53;;;20.35
7830;BMP180;3960;51.86894000;5.39848000;2022-07-21T09:38:38;101791.97;;;20.33
7830;BMP180;3960;51.86894000;5.39848000;2022-07-21T09:41:21;101788.84;;;20.22
7830;BMP180;3960;51.86894000;5.39848000;2022-07-21T09:43:48;101784.34;;;20.15
7830;BMP180;3960;51.86894000;5.39848000;2022-07-21T09:46:29;101799.50;;;20.20
7830;BMP180;3960;51.86894000;5.39848000;2022-07-21T09:48:57;101797.13;;;20.09
7830;BMP180;3960;51.86894000;5.39848000;2022-07-21T09:51:31;101794.25;;;20.13
7830;BMP180;3960;51.86894000;5.39848000;2022-07-21T09:54:06;101807.59;;;20.14
7830;BMP180;3960;51.86894000;5.39848000;2022-07-21T09:56:35;101801.88;;;20.09
7830;BMP180;3960;51.86894000;5.39848000;2022-07-21T09:59:02;101810.44;;;20.11
7830;BMP180;3960;51.86894000;5.39848000;2022-07-21T10:01:29;101813.63;;;20.09
7830;BMP180;3960;51.86894000;5.39848000;2022-07-21T10:03:56;101821.88;;;20.09
7830;BMP180;3960;51.86894000;5.39848000;2022-07-21T10:06:32;101809.16;;;20.03
7830;BMP180;3960;51.86894000;5.39848000;2022-07-21T10:08:59;101819.25;;;20.06
7830;BMP180;3960;51.86894000;5.39848000;2022-07-21T10:11:26;101807.84;;;19.95
7830;BMP180;3960;51.86894000;5.39848000;2022-07-21T10:13:52;101828.19;;;19.97
7830;BMP180;3960;51.86894000;5.39848000;2022-07-21T10:16:18;101822.34;;;19.95
7830;BMP180;3960;51.86894000;5.39848000;2022-07-21T10:19:06;101830.59;;;19.95
7830;BMP180;3960;51.86894000;5.39848000;2022-07-21T10:24:02;101838.56;;;19.93
7830;BMP180;3960;51.86894000;5.39848000;2022-07-21T10:26:28;101838.19;;;19.91
7830;BMP180;3960;51.86894000;5.39848000;2022-07-21T10:28:53;101842.59;;;19.89
7830;BMP180;3960;51.86894000;5.39848000;2022-07-21T10:31:21;101838.94;;;19.92
7830;BMP180;3960;51.86894000;5.39848000;2022-07-21T10:39:22;101844.59;;;19.88
7830;BMP180;3960;51.86894000;5.39848000;2022-07-21T10:41:54;101843.03;;;19.87
7830;BMP180;3960;51.86894000;5.39848000;2022-07-21T10:47:13;101843.47;;;19.86
7830;BMP180;3960;51.86894000;5.39848000;2022-07-21T10:55:18;101845.91;;;19.84
7830;BMP180;3960;51.86894000;5.39848000;2022-07-21T10:58:16;101851.84;;;19.82
7830;BMP180;3960;51.86894000;5.39848000;2022-07-21T11:00:55;101851.53;;;19.80
7830;BMP180;3960;51.86894000;5.39848000;2022-07-21T11:03:30;101856.13;;;19.83
7830;BMP180;3960;51.86894000;5.39848000;2022-07-21T11:08:47;101858.78;;;19.99
7830;BMP180;3960;51.86894000;5.39848000;2022-07-21T11:11:27;101847.41;;;20.10
7830;BMP180;3960;51.86894000;5.39848000;2022-07-21T11:14:03;101855.38;;;20.29
7830;BMP180;3960;51.86894000;5.39848000;2022-07-21T11:19:44;101865.13;;;20.43
7830;BMP180;3960;51.86894000;5.39848000;2022-07-21T11:22:25;101866.38;;;20.51
7830;BMP180;3960;51.86894000;5.39848000;2022-07-21T11:24:52;101868.72;;;20.52
7830;BMP180;3960;51.86894000;5.39848000;2022-07-21T11:27:22;101864.75;;;20.53
7830;BMP180;3960;51.86894000;5.39848000;2022-07-21T11:29:50;101866.09;;;20.49
7830;BMP180;3960;51.86894000;5.39848000;2022-07-21T11:32:16;101871.06;;;20.41
7830;BMP180;3960;51.86894000;5.39848000;2022-07-21T11:34:53;101866.56;;;20.35
7830;BMP180;3960;51.86894000;5.39848000;2022-07-21T11:37:28;101874.75;;;20.26
7830;BMP180;3960;51.86894000;5.39848000;2022-07-21T11:39:54;101876.34;;;20.14
7830;BMP180;3960;51.86894000;5.39848000;2022-07-21T11:42:19;101877.34;;;20.08
7830;BMP180;3960;51.86894000;5.39848000;2022-07-21T11:44:46;101869.44;;;19.97
7830;BMP180;3960;51.86894000;5.39848000;2022-07-21T11:47:13;101880.19;;;20.04
7830;BMP180;3960;51.86894000;5.39848000;2022-07-21T11:49:40;101879.63;;;20.09
7830;BMP180;3960;51.86894000;5.39848000;2022-07-21T11:52:08;101878.41;;;20.10
7830;BMP180;3960;51.86894000;5.39848000;2022-07-21T11:54:42;101874.91;;;20.10
7830;BMP180;3960;51.86894000;5.39848000;2022-07-21T11:57:08;101868.31;;;20.07
7830;BMP180;3960;51.86894000;5.39848000;2022-07-21T11:59:34;101869.84;;;20.08
7830;BMP180;3960;51.86894000;5.39848000;2022-07-21T12:02:06;101873.81;;;20.07
7830;BMP180;3960;51.86894000;5.39848000;2022-07-21T12:04:43;101876.47;;;20.11
7830;BMP180;3960;51.86894000;5.39848000;2022-07-21T12:09:52;101873.31;;;20.21
7830;BMP180;3960;51.86894000;5.39848000;2022-07-21T12:12:33;101880.81;;;20.21
7830;BMP180;3960;51.86894000;5.39848000;2022-07-21T12:17:48;101866.72;;;20.19
7830;BMP180;3960;51.86894000;5.39848000;2022-07-21T12:20:16;101869.47;;;20.19
7830;BMP180;3960;51.86894000;5.39848000;2022-07-21T12:22:48;101867.06;;;20.21
7830;BMP180;3960;51.86894000;5.39848000;2022-07-21T12:25:16;101863.75;;;20.26
7830;BMP180;3960;51.86894000;5.39848000;2022-07-21T12:27:44;101872.53;;;20.33
7830;BMP180;3960;51.86894000;5.39848000;2022-07-21T12:32:53;101872.97;;;20.32
7830;BMP180;3960;51.86894000;5.39848000;2022-07-21T12:35:26;101876.38;;;20.36
7830;BMP180;3960;51.86894000;5.39848000;2022-07-21T12:37:56;101877.59;;;20.35
7830;BMP180;3960;51.86894000;5.39848000;2022-07-21T12:40:22;101871.88;;;20.29
7830;BMP180;3960;51.86894000;5.39848000;2022-07-21T12:42:48;101881.22;;;20.32
7830;BMP180;3960;51.86894000;5.39848000;2022-07-21T12:45:15;101880.44;;;20.31
7830;BMP180;3960;51.86894000;5.39848000;2022-07-21T12:47:40;101869.06;;;20.20
7830;BMP180;3960;51.86894000;5.39848000;2022-07-21T12:50:08;101880.69;;;20.24
7830;BMP180;3960;51.86894000;5.39848000;2022-07-21T12:52:34;101880.81;;;20.21
7830;BMP180;3960;51.86894000;5.39848000;2022-07-21T12:55:00;101873.88;;;20.16
7830;BMP180;3960;51.86894000;5.39848000;2022-07-21T12:57:27;101875.19;;;20.24
7830;BMP180;3960;51.86894000;5.39848000;2022-07-21T12:59:54;101883.22;;;20.19